sensor_id;sensor_type;location;lat;lon;timestamp;P1;durP1;ratioP1;P2;durP2;ratioP2
56670;SDS011;42545;50.054;8.306;2023-03-01T00:01:36;11.02;;;6.18;;
56670;SDS011;42545;50.054;8.306;2023-03-01T00:04:04;16.40;;;7.75;;
56670;SDS011;42545;50.054;8.306;2023-03-01T00:06:30;12.27;;;6.90;;
56670;SDS011;42545;50.054;8.306;2023-03-01T00:08:57;17.38;;;8.25;;
56670;SDS011;42545;50.054;8.306;2023-03-01T00:11:26;13.02;;;7.00;;
56670;SDS011;42545;50.054;8.306;2023-03-01T00:13:56;12.70;;;7.82;;
56670;SDS011;42545;50.054;8.306;2023-03-01T00:16:24;15.55;;;7.95;;
56670;SDS011;42545;50.054;8.306;2023-03-01T00:18:53;13.73;;;7.45;;
56670;SDS011;42545;50.054;8.306;2023-03-01T00:21:21;12.57;;;7.40;;
56670;SDS011;42545;50.054;8.306;2023-03-01T00:23:49;11.73;;;7.03;;
56670;SDS011;42545;50.054;8.306;2023-03-01T00:26:17;13.73;;;7.78;;
56670;SDS011;42545;50.054;8.306;2023-03-01T00:28:46;13.40;;;7.00;;
56670;SDS011;42545;50.054;8.306;2023-03-01T00:31:14;13.27;;;7.97;;
56670;SDS011;42545;50.054;8.306;2023-03-01T00:33:43;14.02;;;7.63;;
56670;SDS011;42545;50.054;8.306;2023-03-01T00:36:11;12.88;;;7.60;;
56670;SDS011;42545;50.054;8.306;2023-03-01T00:38:42;13.43;;;7.55;;
56670;SDS011;42545;50.054;8.306;2023-03-01T00:41:12;11.65;;;7.03;;
56670;SDS011;42545;50.054;8.306;2023-03-01T00:43:40;15.27;;;7.68;;
56670;SDS011;42545;50.054;8.306;2023-03-01T00:46:09;18.30;;;9.20;;
56670;SDS011;42545;50.054;8.306;2023-03-01T00:51:05;15.60;;;8.05;;
56670;SDS011;42545;50.054;8.306;2023-03-01T00:53:33;14.82;;;7.28;;
56670;SDS011;42545;50.054;8.306;2023-03-01T00:56:00;13.55;;;7.72;;
56670;SDS011;42545;50.054;8.306;2023-03-01T00:58:27;9.88;;;6.13;;
56670;SDS011;42545;50.054;8.306;2023-03-01T01:00:54;12.93;;;7.00;;
56670;SDS011;42545;50.054;8.306;2023-03-01T01:03:23;10.85;;;6.78;;
56670;SDS011;42545;50.054;8.306;2023-03-01T01:05:51;10.85;;;6.00;;
56670;SDS011;42545;50.054;8.306;2023-03-01T01:08:18;10.55;;;5.80;;
56670;SDS011;42545;50.054;8.306;2023-03-01T01:10:45;9.45;;;5.65;;
56670;SDS011;42545;50.054;8.306;2023-03-01T01:13:11;12.38;;;5.35;;
56670;SDS011;42545;50.054;8.306;2023-03-01T01:15:39;10.77;;;5.63;;
56670;SDS011;42545;50.054;8.306;2023-03-01T01:18:06;11.20;;;6.30;;
56670;SDS011;42545;50.054;8.306;2023-03-01T01:20:35;9.40;;;5.65;;
56670;SDS011;42545;50.054;8.306;2023-03-01T01:23:04;9.93;;;5.67;;
56670;SDS011;42545;50.054;8.306;2023-03-01T01:25:33;10.07;;;5.95;;
56670;SDS011;42545;50.054;8.306;2023-03-01T01:28:01;10.73;;;5.63;;
56670;SDS011;42545;50.054;8.306;2023-03-01T01:30:28;12.90;;;7.25;;
56670;SDS011;42545;50.054;8.306;2023-03-01T01:32:54;10.65;;;6.15;;
56670;SDS011;42545;50.054;8.306;2023-03-01T01:35:21;10.77;;;6.25;;
56670;SDS011;42545;50.054;8.306;2023-03-01T01:37:49;12.52;;;7.07;;
56670;SDS011;42545;50.054;8.306;2023-03-01T01:40:17;13.40;;;7.47;;
56670;SDS011;42545;50.054;8.306;2023-03-01T01:42:43;16.08;;;8.38;;
56670;SDS011;42545;50.054;8.306;2023-03-01T01:45:27;14.80;;;7.75;;
56670;SDS011;42545;50.054;8.306;2023-03-01T01:47:58;10.88;;;6.50;;
56670;SDS011;42545;50.054;8.306;2023-03-01T01:50:29;11.60;;;6.13;;
56670;SDS011;42545;50.054;8.306;2023-03-01T01:53:04;10.25;;;5.68;;
56670;SDS011;42545;50.054;8.306;2023-03-01T01:55:32;10.65;;;5.90;;
56670;SDS011;42545;50.054;8.306;2023-03-01T01:58:02;11.85;;;6.40;;
56670;SDS011;42545;50.054;8.306;2023-03-01T02:00:34;13.82;;;6.97;;
56670;SDS011;42545;50.054;8.306;2023-03-01T02:03:01;11.90;;;6.63;;
56670;SDS011;42545;50.054;8.306;2023-03-01T02:05:33;14.10;;;7.40;;
56670;SDS011;42545;50.054;8.306;2023-03-01T02:08:06;12.20;;;6.57;;
56670;SDS011;42545;50.054;8.306;2023-03-01T02:10:34;14.20;;;7.68;;
56670;SDS011;42545;50.054;8.306;2023-03-01T02:13:02;18.60;;;9.10;;
56670;SDS011;42545;50.054;8.306;2023-03-01T02:15:31;14.88;;;8.23;;
56670;SDS011;42545;50.054;8.306;2023-03-01T02:18:00;12.57;;;7.28;;
56670;SDS011;42545;50.054;8.306;2023-03-01T02:20:30;14.77;;;7.82;;
56670;SDS011;42545;50.054;8.306;2023-03-01T02:23:07;14.43;;;7.60;;
56670;SDS011;42545;50.054;8.306;2023-03-01T02:25:38;13.40;;;8.38;;
56670;SDS011;42545;50.054;8.306;2023-03-01T02:28:20;14.35;;;7.72;;
56670;SDS011;42545;50.054;8.306;2023-03-01T02:30:52;14.85;;;8.50;;
56670;SDS011;42545;50.054;8.306;2023-03-01T02:33:37;15.18;;;8.60;;
56670;SDS011;42545;50.054;8.306;2023-03-01T02:36:06;16.60;;;8.85;;
56670;SDS011;42545;50.054;8.306;2023-03-01T02:38:39;13.82;;;8.40;;
56670;SDS011;42545;50.054;8.306;2023-03-01T02:41:06;15.15;;;8.55;;
56670;SDS011;42545;50.054;8.306;2023-03-01T02:43:36;14.75;;;8.57;;
56670;SDS011;42545;50.054;8.306;2023-03-01T02:46:04;13.30;;;7.50;;
56670;SDS011;42545;50.054;8.306;2023-03-01T02:48:39;13.15;;;8.65;;
56670;SDS011;42545;50.054;8.306;2023-03-01T02:51:15;15.15;;;7.82;;
56670;SDS011;42545;50.054;8.306;2023-03-01T02:53:53;14.18;;;7.88;;
56670;SDS011;42545;50.054;8.306;2023-03-01T02:56:25;15.02;;;7.63;;
56670;SDS011;42545;50.054;8.306;2023-03-01T02:58:53;16.52;;;9.05;;
56670;SDS011;42545;50.054;8.306;2023-03-01T03:01:25;19.00;;;8.50;;
56670;SDS011;42545;50.054;8.306;2023-03-01T03:04:01;17.15;;;9.65;;
56670;SDS011;42545;50.054;8.306;2023-03-01T03:06:29;19.25;;;10.45;;
56670;SDS011;42545;50.054;8.306;2023-03-01T03:08:56;13.15;;;7.95;;
56670;SDS011;42545;50.054;8.306;2023-03-01T03:11:23;15.52;;;8.60;;
56670;SDS011;42545;50.054;8.306;2023-03-01T03:13:49;12.88;;;7.70;;
56670;SDS011;42545;50.054;8.306;2023-03-01T03:16:20;14.43;;;8.15;;
56670;SDS011;42545;50.054;8.306;2023-03-01T03:18:47;18.02;;;9.10;;
56670;SDS011;42545;50.054;8.306;2023-03-01T03:21:14;16.65;;;9.52;;
56670;SDS011;42545;50.054;8.306;2023-03-01T03:23:41;13.85;;;8.27;;
56670;SDS011;42545;50.054;8.306;2023-03-01T03:26:08;18.20;;;10.05;;
56670;SDS011;42545;50.054;8.306;2023-03-01T03:28:38;15.88;;;8.98;;
56670;SDS011;42545;50.054;8.306;2023-03-01T03:31:06;18.83;;;9.60;;
56670;SDS011;42545;50.054;8.306;2023-03-01T03:33:36;18.40;;;9.55;;
56670;SDS011;42545;50.054;8.306;2023-03-01T03:36:03;15.57;;;8.85;;
56670;SDS011;42545;50.054;8.306;2023-03-01T03:38:30;16.35;;;9.60;;
56670;SDS011;42545;50.054;8.306;2023-03-01T03:41:02;12.70;;;8.00;;
56670;SDS011;42545;50.054;8.306;2023-03-01T03:43:32;14.98;;;8.82;;
56670;SDS011;42545;50.054;8.306;2023-03-01T03:45:59;16.67;;;9.88;;
56670;SDS011;42545;50.054;8.306;2023-03-01T03:48:30;17.85;;;10.88;;
56670;SDS011;42545;50.054;8.306;2023-03-01T03:50:59;17.75;;;9.50;;
56670;SDS011;42545;50.054;8.306;2023-03-01T03:53:26;18.50;;;10.45;;
56670;SDS011;42545;50.054;8.306;2023-03-01T03:55:55;16.20;;;8.77;;
56670;SDS011;42545;50.054;8.306;2023-03-01T03:58:22;13.85;;;8.27;;
56670;SDS011;42545;50.054;8.306;2023-03-01T04:00:52;17.30;;;8.45;;
56670;SDS011;42545;50.054;8.306;2023-03-01T04:03:20;17.63;;;9.50;;
56670;SDS011;42545;50.054;8.306;2023-03-01T04:05:49;15.02;;;7.38;;
56670;SDS011;42545;50.054;8.306;2023-03-01T04:08:18;14.57;;;8.13;;
56670;SDS011;42545;50.054;8.306;2023-03-01T04:10:47;14.20;;;8.02;;
56670;SDS011;42545;50.054;8.306;2023-03-01T04:13:16;14.20;;;7.68;;
56670;SDS011;42545;50.054;8.306;2023-03-01T04:15:45;14.05;;;8.57;;
56670;SDS011;42545;50.054;8.306;2023-03-01T04:18:13;14.45;;;8.65;;
56670;SDS011;42545;50.054;8.306;2023-03-01T04:20:41;18.55;;;8.73;;
56670;SDS011;42545;50.054;8.306;2023-03-01T04:23:10;14.30;;;8.68;;
56670;SDS011;42545;50.054;8.306;2023-03-01T04:25:45;15.48;;;9.00;;
56670;SDS011;42545;50.054;8.306;2023-03-01T04:28:14;18.33;;;9.80;;
56670;SDS011;42545;50.054;8.306;2023-03-01T04:30:41;15.77;;;8.63;;
56670;SDS011;42545;50.054;8.306;2023-03-01T04:33:09;16.92;;;9.73;;
56670;SDS011;42545;50.054;8.306;2023-03-01T04:35:36;13.85;;;8.18;;
56670;SDS011;42545;50.054;8.306;2023-03-01T04:38:04;14.98;;;8.02;;
56670;SDS011;42545;50.054;8.306;2023-03-01T04:40:32;17.23;;;9.40;;
56670;SDS011;42545;50.054;8.306;2023-03-01T04:43:01;15.73;;;8.60;;
56670;SDS011;42545;50.054;8.306;2023-03-01T04:45:29;12.40;;;7.20;;
56670;SDS011;42545;50.054;8.306;2023-03-01T04:47:59;16.52;;;9.02;;
56670;SDS011;42545;50.054;8.306;2023-03-01T04:50:26;15.02;;;7.88;;
56670;SDS011;42545;50.054;8.306;2023-03-01T04:52:53;14.25;;;9.07;;
56670;SDS011;42545;50.054;8.306;2023-03-01T04:55:23;18.10;;;9.55;;
56670;SDS011;42545;50.054;8.306;2023-03-01T04:57:50;14.65;;;7.57;;
56670;SDS011;42545;50.054;8.306;2023-03-01T05:00:19;15.38;;;8.02;;
56670;SDS011;42545;50.054;8.306;2023-03-01T05:02:48;16.52;;;8.32;;
56670;SDS011;42545;50.054;8.306;2023-03-01T05:05:18;18.55;;;10.38;;
56670;SDS011;42545;50.054;8.306;2023-03-01T05:07:50;15.98;;;8.13;;
56670;SDS011;42545;50.054;8.306;2023-03-01T05:10:17;16.30;;;9.68;;
56670;SDS011;42545;50.054;8.306;2023-03-01T05:12:44;17.73;;;9.80;;
56670;SDS011;42545;50.054;8.306;2023-03-01T05:15:11;19.27;;;10.23;;
56670;SDS011;42545;50.054;8.306;2023-03-01T05:17:40;20.60;;;10.07;;
56670;SDS011;42545;50.054;8.306;2023-03-01T05:20:07;16.65;;;9.68;;
56670;SDS011;42545;50.054;8.306;2023-03-01T05:22:35;21.02;;;10.05;;
56670;SDS011;42545;50.054;8.306;2023-03-01T05:25:02;18.20;;;10.13;;
56670;SDS011;42545;50.054;8.306;2023-03-01T05:27:29;16.95;;;8.30;;
56670;SDS011;42545;50.054;8.306;2023-03-01T05:29:56;15.50;;;7.85;;
56670;SDS011;42545;50.054;8.306;2023-03-01T05:32:23;13.25;;;7.25;;
56670;SDS011;42545;50.054;8.306;2023-03-01T05:34:52;14.77;;;7.97;;
56670;SDS011;42545;50.054;8.306;2023-03-01T05:37:20;14.43;;;6.72;;
56670;SDS011;42545;50.054;8.306;2023-03-01T05:39:46;13.40;;;6.85;;
56670;SDS011;42545;50.054;8.306;2023-03-01T05:42:15;12.85;;;7.32;;
56670;SDS011;42545;50.054;8.306;2023-03-01T05:44:41;21.27;;;8.82;;
56670;SDS011;42545;50.054;8.306;2023-03-01T05:47:08;16.15;;;7.82;;
56670;SDS011;42545;50.054;8.306;2023-03-01T05:49:35;17.58;;;8.60;;
56670;SDS011;42545;50.054;8.306;2023-03-01T05:52:03;13.85;;;7.00;;
56670;SDS011;42545;50.054;8.306;2023-03-01T05:54:30;16.90;;;7.80;;
56670;SDS011;42545;50.054;8.306;2023-03-01T05:56:58;22.27;;;10.50;;
56670;SDS011;42545;50.054;8.306;2023-03-01T05:59:26;18.65;;;8.98;;
56670;SDS011;42545;50.054;8.306;2023-03-01T06:01:53;21.67;;;9.52;;
56670;SDS011;42545;50.054;8.306;2023-03-01T06:04:20;23.25;;;10.65;;
56670;SDS011;42545;50.054;8.306;2023-03-01T06:06:48;17.63;;;9.57;;
56670;SDS011;42545;50.054;8.306;2023-03-01T06:09:17;16.42;;;9.35;;
56670;SDS011;42545;50.054;8.306;2023-03-01T06:11:43;20.75;;;9.15;;
56670;SDS011;42545;50.054;8.306;2023-03-01T06:14:12;15.82;;;9.32;;
56670;SDS011;42545;50.054;8.306;2023-03-01T06:16:39;16.60;;;9.27;;
56670;SDS011;42545;50.054;8.306;2023-03-01T06:19:06;20.30;;;9.52;;
56670;SDS011;42545;50.054;8.306;2023-03-01T06:21:33;16.65;;;9.73;;
56670;SDS011;42545;50.054;8.306;2023-03-01T06:24:00;17.85;;;9.10;;
56670;SDS011;42545;50.054;8.306;2023-03-01T06:26:28;15.10;;;8.63;;
56670;SDS011;42545;50.054;8.306;2023-03-01T06:28:55;18.83;;;9.38;;
56670;SDS011;42545;50.054;8.306;2023-03-01T06:31:21;18.83;;;9.27;;
56670;SDS011;42545;50.054;8.306;2023-03-01T06:33:48;15.63;;;8.63;;
56670;SDS011;42545;50.054;8.306;2023-03-01T06:36:15;15.27;;;8.52;;
56670;SDS011;42545;50.054;8.306;2023-03-01T06:38:43;15.40;;;8.40;;
56670;SDS011;42545;50.054;8.306;2023-03-01T06:41:10;17.77;;;9.02;;
56670;SDS011;42545;50.054;8.306;2023-03-01T06:43:38;11.57;;;7.40;;
56670;SDS011;42545;50.054;8.306;2023-03-01T06:46:05;18.42;;;9.80;;
56670;SDS011;42545;50.054;8.306;2023-03-01T06:48:32;13.50;;;7.55;;
56670;SDS011;42545;50.054;8.306;2023-03-01T06:50:59;15.02;;;9.02;;
56670;SDS011;42545;50.054;8.306;2023-03-01T06:53:26;14.40;;;8.77;;
56670;SDS011;42545;50.054;8.306;2023-03-01T06:55:54;16.50;;;9.10;;
56670;SDS011;42545;50.054;8.306;2023-03-01T06:58:21;12.18;;;7.63;;
56670;SDS011;42545;50.054;8.306;2023-03-01T07:00:51;17.65;;;8.70;;
56670;SDS011;42545;50.054;8.306;2023-03-01T07:03:17;15.02;;;9.02;;
56670;SDS011;42545;50.054;8.306;2023-03-01T07:05:48;14.52;;;8.60;;
56670;SDS011;42545;50.054;8.306;2023-03-01T07:08:17;15.85;;;8.38;;
56670;SDS011;42545;50.054;8.306;2023-03-01T07:10:44;17.60;;;9.10;;
56670;SDS011;42545;50.054;8.306;2023-03-01T07:13:12;19.60;;;9.48;;
56670;SDS011;42545;50.054;8.306;2023-03-01T07:15:39;15.02;;;7.88;;
56670;SDS011;42545;50.054;8.306;2023-03-01T07:18:07;18.45;;;9.43;;
56670;SDS011;42545;50.054;8.306;2023-03-01T07:20:34;13.65;;;8.55;;
56670;SDS011;42545;50.054;8.306;2023-03-01T07:23:01;18.92;;;8.82;;
56670;SDS011;42545;50.054;8.306;2023-03-01T07:25:28;17.45;;;9.25;;
56670;SDS011;42545;50.054;8.306;2023-03-01T07:27:55;15.98;;;7.95;;
56670;SDS011;42545;50.054;8.306;2023-03-01T07:30:21;18.73;;;9.07;;
56670;SDS011;42545;50.054;8.306;2023-03-01T07:32:50;16.05;;;9.55;;
56670;SDS011;42545;50.054;8.306;2023-03-01T07:35:19;15.75;;;9.02;;
56670;SDS011;42545;50.054;8.306;2023-03-01T07:37:53;20.50;;;9.60;;
56670;SDS011;42545;50.054;8.306;2023-03-01T07:40:20;17.70;;;9.02;;
56670;SDS011;42545;50.054;8.306;2023-03-01T07:42:47;14.90;;;8.60;;
56670;SDS011;42545;50.054;8.306;2023-03-01T07:45:13;15.55;;;9.25;;
56670;SDS011;42545;50.054;8.306;2023-03-01T07:47:40;15.43;;;9.27;;
56670;SDS011;42545;50.054;8.306;2023-03-01T07:50:07;14.90;;;8.75;;
56670;SDS011;42545;50.054;8.306;2023-03-01T07:52:37;16.38;;;8.35;;
56670;SDS011;42545;50.054;8.306;2023-03-01T07:55:03;16.73;;;8.88;;
56670;SDS011;42545;50.054;8.306;2023-03-01T07:57:31;15.93;;;8.75;;
56670;SDS011;42545;50.054;8.306;2023-03-01T07:59:58;20.48;;;9.48;;
56670;SDS011;42545;50.054;8.306;2023-03-01T08:02:24;14.43;;;8.75;;
56670;SDS011;42545;50.054;8.306;2023-03-01T08:04:51;16.88;;;9.13;;
56670;SDS011;42545;50.054;8.306;2023-03-01T08:07:17;16.23;;;8.93;;
56670;SDS011;42545;50.054;8.306;2023-03-01T08:09:45;18.80;;;9.77;;
56670;SDS011;42545;50.054;8.306;2023-03-01T08:12:12;17.05;;;9.25;;
56670;SDS011;42545;50.054;8.306;2023-03-01T08:14:41;17.95;;;8.98;;
56670;SDS011;42545;50.054;8.306;2023-03-01T08:17:08;21.20;;;9.38;;
56670;SDS011;42545;50.054;8.306;2023-03-01T08:19:36;22.55;;;10.27;;
56670;SDS011;42545;50.054;8.306;2023-03-01T08:22:03;20.65;;;10.02;;
56670;SDS011;42545;50.054;8.306;2023-03-01T08:24:30;15.43;;;8.65;;
56670;SDS011;42545;50.054;8.306;2023-03-01T08:26:58;15.13;;;8.63;;
56670;SDS011;42545;50.054;8.306;2023-03-01T08:29:27;19.35;;;9.77;;
56670;SDS011;42545;50.054;8.306;2023-03-01T08:31:54;19.63;;;10.70;;
56670;SDS011;42545;50.054;8.306;2023-03-01T08:34:20;19.13;;;9.60;;
56670;SDS011;42545;50.054;8.306;2023-03-01T08:36:47;19.13;;;10.23;;
56670;SDS011;42545;50.054;8.306;2023-03-01T08:39:15;15.05;;;9.88;;
56670;SDS011;42545;50.054;8.306;2023-03-01T08:41:43;16.73;;;9.60;;
56670;SDS011;42545;50.054;8.306;2023-03-01T08:44:11;17.88;;;9.63;;
56670;SDS011;42545;50.054;8.306;2023-03-01T08:46:41;17.02;;;9.05;;
56670;SDS011;42545;50.054;8.306;2023-03-01T08:49:09;23.20;;;10.90;;
56670;SDS011;42545;50.054;8.306;2023-03-01T08:51:38;17.35;;;9.40;;
56670;SDS011;42545;50.054;8.306;2023-03-01T08:54:05;18.13;;;9.30;;
56670;SDS011;42545;50.054;8.306;2023-03-01T08:56:33;17.42;;;9.27;;
56670;SDS011;42545;50.054;8.306;2023-03-01T08:59:00;16.02;;;9.60;;
56670;SDS011;42545;50.054;8.306;2023-03-01T09:01:29;16.08;;;8.88;;
56670;SDS011;42545;50.054;8.306;2023-03-01T09:03:55;17.58;;;9.82;;
56670;SDS011;42545;50.054;8.306;2023-03-01T09:06:22;14.60;;;8.88;;
56670;SDS011;42545;50.054;8.306;2023-03-01T09:08:49;18.60;;;9.52;;
56670;SDS011;42545;50.054;8.306;2023-03-01T09:11:20;16.45;;;9.57;;
56670;SDS011;42545;50.054;8.306;2023-03-01T09:13:48;19.98;;;9.70;;
56670;SDS011;42545;50.054;8.306;2023-03-01T09:16:16;18.05;;;10.27;;
56670;SDS011;42545;50.054;8.306;2023-03-01T09:18:48;19.17;;;9.95;;
56670;SDS011;42545;50.054;8.306;2023-03-01T09:21:17;19.02;;;9.73;;
56670;SDS011;42545;50.054;8.306;2023-03-01T09:23:46;16.95;;;9.65;;
56670;SDS011;42545;50.054;8.306;2023-03-01T09:26:15;19.63;;;10.52;;
56670;SDS011;42545;50.054;8.306;2023-03-01T09:28:44;19.23;;;10.25;;
56670;SDS011;42545;50.054;8.306;2023-03-01T09:31:13;17.42;;;9.88;;
56670;SDS011;42545;50.054;8.306;2023-03-01T09:33:50;14.60;;;9.52;;
56670;SDS011;42545;50.054;8.306;2023-03-01T09:36:18;18.25;;;10.52;;
56670;SDS011;42545;50.054;8.306;2023-03-01T09:38:47;18.40;;;9.57;;
56670;SDS011;42545;50.054;8.306;2023-03-01T09:41:18;16.55;;;9.98;;
56670;SDS011;42545;50.054;8.306;2023-03-01T09:43:59;20.83;;;9.98;;
56670;SDS011;42545;50.054;8.306;2023-03-01T09:46:30;21.45;;;10.55;;
56670;SDS011;42545;50.054;8.306;2023-03-01T09:49:07;18.40;;;10.32;;
56670;SDS011;42545;50.054;8.306;2023-03-01T09:51:38;19.80;;;10.63;;
56670;SDS011;42545;50.054;8.306;2023-03-01T09:54:05;16.27;;;10.05;;
56670;SDS011;42545;50.054;8.306;2023-03-01T09:56:36;15.90;;;9.38;;
56670;SDS011;42545;50.054;8.306;2023-03-01T09:59:11;18.17;;;9.65;;
56670;SDS011;42545;50.054;8.306;2023-03-01T10:01:50;17.98;;;10.15;;
56670;SDS011;42545;50.054;8.306;2023-03-01T10:04:32;19.25;;;9.73;;
56670;SDS011;42545;50.054;8.306;2023-03-01T10:07:14;19.50;;;10.40;;
56670;SDS011;42545;50.054;8.306;2023-03-01T10:09:48;16.90;;;10.23;;
56670;SDS011;42545;50.054;8.306;2023-03-01T10:12:15;20.23;;;10.23;;
56670;SDS011;42545;50.054;8.306;2023-03-01T10:14:48;17.73;;;10.20;;
56670;SDS011;42545;50.054;8.306;2023-03-01T10:17:24;15.13;;;9.43;;
56670;SDS011;42545;50.054;8.306;2023-03-01T10:19:58;18.98;;;10.90;;
56670;SDS011;42545;50.054;8.306;2023-03-01T10:22:42;17.13;;;10.35;;
56670;SDS011;42545;50.054;8.306;2023-03-01T10:25:12;38.78;;;11.77;;
56670;SDS011;42545;50.054;8.306;2023-03-01T10:27:43;14.98;;;9.27;;
56670;SDS011;42545;50.054;8.306;2023-03-01T10:30:16;17.75;;;9.68;;
56670;SDS011;42545;50.054;8.306;2023-03-01T10:32:47;19.30;;;10.57;;
56670;SDS011;42545;50.054;8.306;2023-03-01T10:35:20;17.77;;;10.50;;
56670;SDS011;42545;50.054;8.306;2023-03-01T10:38:00;17.27;;;9.95;;
56670;SDS011;42545;50.054;8.306;2023-03-01T10:40:31;17.98;;;10.25;;
56670;SDS011;42545;50.054;8.306;2023-03-01T10:42:58;15.32;;;9.52;;
56670;SDS011;42545;50.054;8.306;2023-03-01T10:45:31;20.30;;;9.43;;
56670;SDS011;42545;50.054;8.306;2023-03-01T10:48:11;17.55;;;10.90;;
56670;SDS011;42545;50.054;8.306;2023-03-01T10:50:41;15.15;;;10.20;;
56670;SDS011;42545;50.054;8.306;2023-03-01T10:53:18;20.02;;;10.75;;
56670;SDS011;42545;50.054;8.306;2023-03-01T10:55:56;15.13;;;9.68;;
56670;SDS011;42545;50.054;8.306;2023-03-01T10:58:24;20.83;;;11.00;;
56670;SDS011;42545;50.054;8.306;2023-03-01T11:00:52;19.70;;;10.65;;
56670;SDS011;42545;50.054;8.306;2023-03-01T11:03:21;20.48;;;10.38;;
56670;SDS011;42545;50.054;8.306;2023-03-01T11:05:52;14.00;;;8.75;;
56670;SDS011;42545;50.054;8.306;2023-03-01T11:08:38;14.88;;;9.55;;
56670;SDS011;42545;50.054;8.306;2023-03-01T11:11:17;17.90;;;10.00;;
56670;SDS011;42545;50.054;8.306;2023-03-01T11:13:50;18.25;;;10.35;;
56670;SDS011;42545;50.054;8.306;2023-03-01T11:16:26;16.13;;;10.13;;
56670;SDS011;42545;50.054;8.306;2023-03-01T11:18:58;15.15;;;9.65;;
56670;SDS011;42545;50.054;8.306;2023-03-01T11:21:29;15.68;;;10.23;;
56670;SDS011;42545;50.054;8.306;2023-03-01T11:23:59;17.17;;;10.73;;
56670;SDS011;42545;50.054;8.306;2023-03-01T11:28:58;16.55;;;10.25;;
56670;SDS011;42545;50.054;8.306;2023-03-01T11:31:30;15.23;;;10.02;;
56670;SDS011;42545;50.054;8.306;2023-03-01T11:33:59;15.05;;;9.50;;
56670;SDS011;42545;50.054;8.306;2023-03-01T11:36:39;14.13;;;8.88;;
56670;SDS011;42545;50.054;8.306;2023-03-01T11:39:14;16.10;;;9.45;;
56670;SDS011;42545;50.054;8.306;2023-03-01T11:41:48;23.08;;;10.07;;
56670;SDS011;42545;50.054;8.306;2023-03-01T11:44:20;18.92;;;10.60;;
56670;SDS011;42545;50.054;8.306;2023-03-01T11:47:03;14.45;;;8.95;;
56670;SDS011;42545;50.054;8.306;2023-03-01T11:49:46;16.52;;;8.85;;
56670;SDS011;42545;50.054;8.306;2023-03-01T11:52:24;14.63;;;8.63;;
56670;SDS011;42545;50.054;8.306;2023-03-01T11:55:04;13.95;;;8.82;;
56670;SDS011;42545;50.054;8.306;2023-03-01T11:57:49;13.65;;;8.93;;
56670;SDS011;42545;50.054;8.306;2023-03-01T12:00:39;12.02;;;8.02;;
56670;SDS011;42545;50.054;8.306;2023-03-01T12:03:33;13.52;;;8.18;;
56670;SDS011;42545;50.054;8.306;2023-03-01T12:06:17;14.52;;;8.80;;
56670;SDS011;42545;50.054;8.306;2023-03-01T12:08:54;15.13;;;8.75;;
56670;SDS011;42545;50.054;8.306;2023-03-01T12:11:36;18.95;;;8.75;;
56670;SDS011;42545;50.054;8.306;2023-03-01T12:14:21;13.13;;;7.55;;
56670;SDS011;42545;50.054;8.306;2023-03-01T12:17:09;15.68;;;8.00;;
56670;SDS011;42545;50.054;8.306;2023-03-01T12:19:53;17.33;;;8.27;;
56670;SDS011;42545;50.054;8.306;2023-03-01T12:22:35;15.10;;;8.18;;
56670;SDS011;42545;50.054;8.306;2023-03-01T12:25:14;14.57;;;8.48;;
56670;SDS011;42545;50.054;8.306;2023-03-01T12:27:50;13.80;;;7.65;;
56670;SDS011;42545;50.054;8.306;2023-03-01T12:30:34;13.55;;;7.47;;
56670;SDS011;42545;50.054;8.306;2023-03-01T12:33:14;12.95;;;7.88;;
56670;SDS011;42545;50.054;8.306;2023-03-01T12:35:54;10.63;;;6.95;;
56670;SDS011;42545;50.054;8.306;2023-03-01T12:38:42;11.52;;;6.97;;
56670;SDS011;42545;50.054;8.306;2023-03-01T12:41:16;16.35;;;8.20;;
56670;SDS011;42545;50.054;8.306;2023-03-01T12:43:58;10.23;;;6.03;;
56670;SDS011;42545;50.054;8.306;2023-03-01T12:46:38;11.35;;;6.50;;
56670;SDS011;42545;50.054;8.306;2023-03-01T12:49:18;11.18;;;7.20;;
56670;SDS011;42545;50.054;8.306;2023-03-01T12:51:51;10.60;;;7.60;;
56670;SDS011;42545;50.054;8.306;2023-03-01T12:54:25;10.75;;;6.50;;
56670;SDS011;42545;50.054;8.306;2023-03-01T12:56:59;12.98;;;7.65;;
56670;SDS011;42545;50.054;8.306;2023-03-01T12:59:36;14.20;;;7.90;;
56670;SDS011;42545;50.054;8.306;2023-03-01T13:02:10;9.52;;;6.25;;
56670;SDS011;42545;50.054;8.306;2023-03-01T13:04:50;10.95;;;6.38;;
56670;SDS011;42545;50.054;8.306;2023-03-01T13:07:25;13.63;;;6.90;;
56670;SDS011;42545;50.054;8.306;2023-03-01T13:10:05;11.77;;;6.60;;
56670;SDS011;42545;50.054;8.306;2023-03-01T13:12:47;16.88;;;7.68;;
56670;SDS011;42545;50.054;8.306;2023-03-01T13:15:33;12.77;;;7.45;;
56670;SDS011;42545;50.054;8.306;2023-03-01T13:18:03;12.20;;;7.57;;
56670;SDS011;42545;50.054;8.306;2023-03-01T13:20:52;11.40;;;7.30;;
56670;SDS011;42545;50.054;8.306;2023-03-01T13:23:24;11.88;;;7.10;;
56670;SDS011;42545;50.054;8.306;2023-03-01T13:26:00;10.00;;;6.80;;
56670;SDS011;42545;50.054;8.306;2023-03-01T13:28:38;11.05;;;6.82;;
56670;SDS011;42545;50.054;8.306;2023-03-01T13:34:42;11.88;;;6.90;;
56670;SDS011;42545;50.054;8.306;2023-03-01T13:37:21;11.35;;;7.15;;
56670;SDS011;42545;50.054;8.306;2023-03-01T13:45:58;10.57;;;6.90;;
56670;SDS011;42545;50.054;8.306;2023-03-01T13:48:27;13.07;;;7.07;;
56670;SDS011;42545;50.054;8.306;2023-03-01T13:50:57;12.77;;;6.95;;
56670;SDS011;42545;50.054;8.306;2023-03-01T13:53:27;10.95;;;6.53;;
56670;SDS011;42545;50.054;8.306;2023-03-01T13:55:58;10.18;;;6.15;;
56670;SDS011;42545;50.054;8.306;2023-03-01T13:58:28;8.38;;;5.78;;
56670;SDS011;42545;50.054;8.306;2023-03-01T14:00:59;10.70;;;6.30;;
56670;SDS011;42545;50.054;8.306;2023-03-01T14:03:27;9.75;;;6.57;;
56670;SDS011;42545;50.054;8.306;2023-03-01T14:05:59;9.95;;;6.45;;
56670;SDS011;42545;50.054;8.306;2023-03-01T14:08:29;10.38;;;6.28;;
56670;SDS011;42545;50.054;8.306;2023-03-01T14:11:01;9.70;;;6.30;;
56670;SDS011;42545;50.054;8.306;2023-03-01T14:13:51;16.08;;;6.88;;
56670;SDS011;42545;50.054;8.306;2023-03-01T14:16:32;13.05;;;6.60;;
56670;SDS011;42545;50.054;8.306;2023-03-01T14:19:15;10.57;;;6.45;;
56670;SDS011;42545;50.054;8.306;2023-03-01T14:21:45;8.60;;;6.00;;
56670;SDS011;42545;50.054;8.306;2023-03-01T14:24:16;11.00;;;6.82;;
56670;SDS011;42545;50.054;8.306;2023-03-01T14:26:44;11.25;;;6.82;;
56670;SDS011;42545;50.054;8.306;2023-03-01T14:29:25;12.60;;;6.78;;
56670;SDS011;42545;50.054;8.306;2023-03-01T14:32:01;12.88;;;6.50;;
56670;SDS011;42545;50.054;8.306;2023-03-01T14:34:35;9.70;;;6.30;;
56670;SDS011;42545;50.054;8.306;2023-03-01T14:37:09;11.18;;;6.28;;
56670;SDS011;42545;50.054;8.306;2023-03-01T14:39:36;10.80;;;6.80;;
56670;SDS011;42545;50.054;8.306;2023-03-01T14:42:04;13.02;;;7.07;;
56670;SDS011;42545;50.054;8.306;2023-03-01T14:44:31;10.02;;;6.40;;
56670;SDS011;42545;50.054;8.306;2023-03-01T14:47:03;11.70;;;6.25;;
56670;SDS011;42545;50.054;8.306;2023-03-01T14:49:31;9.43;;;6.22;;
56670;SDS011;42545;50.054;8.306;2023-03-01T14:52:01;10.13;;;6.38;;
56670;SDS011;42545;50.054;8.306;2023-03-01T14:57:04;8.43;;;5.47;;
56670;SDS011;42545;50.054;8.306;2023-03-01T14:59:32;11.30;;;6.35;;
56670;SDS011;42545;50.054;8.306;2023-03-01T15:01:59;10.48;;;6.35;;
56670;SDS011;42545;50.054;8.306;2023-03-01T15:04:28;11.68;;;6.30;;
56670;SDS011;42545;50.054;8.306;2023-03-01T15:06:58;10.88;;;6.32;;
56670;SDS011;42545;50.054;8.306;2023-03-01T15:09:29;12.80;;;6.93;;
56670;SDS011;42545;50.054;8.306;2023-03-01T15:12:00;12.43;;;7.15;;